Shrewsbury, Louisiana
Current Conditions -  °F | °C
As of 5:15 PM on Sunday 21 Dec 2014 (Local Time) from KVSH Reporting Station
Overcast Overcast  
Wind Chill: 55°   Ceiling: 900
Heat Index: 55°   Visibility: 10mi
Dew Point: 48°   Wind: 3mph
Humidity: 77%   Direction: 50°NE
Pressure: 30"   Gusts: NA
Location:  29.9622°N, 90.1597°W
Report Text: KVSH 212315Z AUTO 05003KT 10SM OVC009 13/09 A3000 RMK AO1
Loading
Personal Weather Stations






























Interactive Weather Map New forecast layout! Learn more

10-Day Weather Forecast

Advertisements
Track Severe Weather on mobile